Curtis, NE (69025)

11:24 AM CST on February 23, 2017 (GMT -0600)
McCook Municipal | | Change Station

Elev 2579 ft 40.21 °N, 100.59 °W | Updated 15 minutes ago

Overcast
Overcast
32 °F
Feels Like 20 °F
N
20
Wind Variable Wind from NE
Gusts 26 mph

Today
High -- | Low -- °F
--% Chance of Precip.
Yesterday
High -- | Low -- °F
Precip. -- in
Pressure 29.61 in
Visibility 2.5 miles
Clouds Overcast 400 ft
Windchill 20 °F
Dew Point 31 °F
Humidity 96%
Rainfall 0.00 in
Snow Depth Not available.
7:24 AM 6:26 PM
Waning Crescent, 9% visible
SPECI KMCK 231709Z AUTO 05017G23KT 2 1/2SM BR OVC004 00/M01 A2961 RMK AO2 T00001006
Pressure 29.61 in
Visibility 2.5 miles
Clouds Overcast 400 ft
Windchill 20 °F
Dew Point 31 °F
Humidity 96%
Rainfall 0.00 in
Snow Depth Not available.
7:24 AM 6:26 PM
Waning Crescent, 9% visible
SPECI KMCK 231709Z AUTO 05017G23KT 2 1/2SM BR OVC004 00/M01 A2961 RMK AO2 T00001006

Get Your Daily Forecast Email!

Thanks for signing up!

Be on the lookout for a verification email in your inbox.

You'll start receiving the daily forecast at 8 AM.

×

10-Day Weather Forecast

Almanac

Astronomy

Feb. 23, 2017 Rise Set
Actual Time
Civil Twilight
Nautical Twilight
Astronomical Twilight
Moon
Length of Visible Light
Length of Day
Tomorrow will be .
, % of the Moon is Illuminated

Today's Extremes

State Highs State Lows

Community

WunderPhotos

Upload Photos

1,962,540 photos uploaded!

WunderBlog® & News

Nearby

Air Quality

  Air Quality AQ Index Pollutant
Not available.

Snow Depth

Station Depth Elevation

Earthquake Activity

City Distance Mag. Time & Date
Minimum magnitude displayed is 2.5.

Coastal Water Temperatures

Place Temperature

Stations

Nearby Weather Stations

Station Location Temp. Windchill Dew Point Humidity Wind Precip. Elev Updated Type
                   

Watches & Warnings

There are currently no watches in effect.